Vizconde de Eza — EAXB — position and weather

sailwx.info

Track history (hours):
 
Tides and Currents Weather Stations Pressure Air Temp Water Temp Dewpoint Dewpoint Depression Visibility Wind Speed Wind Dir Waves Ship Positions

Oceanographic research ship Vizconde de Eza (Spain)

Detailed information on ship capabilities available from University of Delaware's Ocean Information Center.

Last reported at 2017-Sep-13 15:44 UTC. Time now 2017-Dec-18 09:15 UTC.
Position N 53°48' W 011°20'.
Warning: this ship's position is months out of date.

Length 53 m; draft 6.2 m.

Type: Other ship. MMSI: 224582000.

Date/timePositionNaut miles runAvg speedWind from/ knotsBaromVisibWave heightAir tempDewpointWater temp
2017-Sep-13 15:44N 53°48' W 011°20'7 3.1
2017-Sep-13 13:33N 53°52' W 011°29'410.3
2017-Sep-13 13:10N 53°53' W 011°35'43 1.1
2017-Sep-11 23:20N 53°19' W 010°52'40 6.6
2017-Sep-11 17:11N 53°11' W 009°46'  
2017-Sep-08 03:40N 53°12' W 009°22'2 7.7
2017-Sep-08 03:23N 53°12' W 009°25'7 8.7
2017-Sep-08 02:33N 53°11' W 009°37'111.0
2017-Sep-08 02:29N 53°11' W 009°39'511.3
2017-Sep-08 02:00N 53°11' W 009°48'610.9
2017-Sep-08 01:29N 53°12' W 009°57'510.7
2017-Sep-08 01:00N 53°12' W 010°06'510.6
2017-Sep-08 00:30N 53°11' W 010°15'1110.4
2017-Sep-07 23:25N 53°08' W 010°32'510.2
2017-Sep-07 22:55N 53°06' W 010°41'  
Track history (hours):
 
Tides and Currents Weather Stations Pressure Air Temp Water Temp Dewpoint Dewpoint Depression Visibility Wind Speed Wind Dir Waves Ship Positions

Oceanographic research ship Vizconde de Eza (Spain)

Detailed information on ship capabilities available from University of Delaware's Ocean Information Center.

Last reported at 2017-Sep-13 15:44 UTC. Time now 2017-Dec-18 09:15 UTC.
Position N 53°48' W 011°20'.
Warning: this ship's position is months out of date.

Length 53 m; draft 6.2 m.

Type: Other ship. MMSI: 224582000.

Date/timePositionNaut miles runAvg speedWind from/ knotsBaromVisibWave heightAir tempDewpointWater temp
2017-Sep-13 15:44N 53°48' W 011°20'7 3.1
2017-Sep-13 13:33N 53°52' W 011°29'410.3
2017-Sep-13 13:10N 53°53' W 011°35'43 1.1
2017-Sep-11 23:20N 53°19' W 010°52'40 6.6
2017-Sep-11 17:11N 53°11' W 009°46'  
2017-Sep-08 03:40N 53°12' W 009°22'2 7.7
2017-Sep-08 03:23N 53°12' W 009°25'7 8.7
2017-Sep-08 02:33N 53°11' W 009°37'111.0
2017-Sep-08 02:29N 53°11' W 009°39'511.3
2017-Sep-08 02:00N 53°11' W 009°48'610.9
2017-Sep-08 01:29N 53°12' W 009°57'510.7
2017-Sep-08 01:00N 53°12' W 010°06'510.6
2017-Sep-08 00:30N 53°11' W 010°15'1110.4
2017-Sep-07 23:25N 53°08' W 010°32'510.2
2017-Sep-07 22:55N 53°06' W 010°41'  

Dump ship's entire track history